createdAt,value
2023-04-08T00:01:42.602Z,17.83
2023-04-08T00:04:09.850Z,16.55
2023-04-08T00:06:37.214Z,20.73
2023-04-08T00:09:04.069Z,15.38
2023-04-08T00:11:30.788Z,16.80
2023-04-08T00:13:57.416Z,17.00
2023-04-08T00:16:24.063Z,18.95
2023-04-08T00:18:51.226Z,18.63
2023-04-08T00:21:20.458Z,17.25
2023-04-08T00:23:47.315Z,19.65
2023-04-08T00:26:13.915Z,29.58
2023-04-08T00:28:41.119Z,15.13
2023-04-08T00:31:07.810Z,17.20
2023-04-08T00:33:34.577Z,16.00
2023-04-08T00:36:01.236Z,19.45
2023-04-08T00:38:27.908Z,17.13
2023-04-08T00:40:54.516Z,17.10
2023-04-08T00:43:21.238Z,16.70
2023-04-08T00:45:48.185Z,16.20
2023-04-08T00:48:14.811Z,19.48
2023-04-08T00:50:42.958Z,17.55
2023-04-08T00:53:09.991Z,15.52
2023-04-08T00:55:36.598Z,19.45
2023-04-08T00:58:03.278Z,18.40
2023-04-08T01:00:30.222Z,14.15
2023-04-08T01:03:23.577Z,15.45
2023-04-08T01:05:56.562Z,15.15
2023-04-08T01:08:23.266Z,17.02
2023-04-08T01:10:50.902Z,16.70
2023-04-08T01:13:18.118Z,17.38
2023-04-08T01:15:44.762Z,16.55
2023-04-08T01:18:12.541Z,14.40
2023-04-08T01:20:40.303Z,13.85
2023-04-08T01:23:14.674Z,15.60
2023-04-08T01:26:03.196Z,13.95
2023-04-08T01:28:30.511Z,17.98
2023-04-08T01:30:58.211Z,13.52
2023-04-08T01:33:24.961Z,15.75
2023-04-08T01:35:51.983Z,16.52
2023-04-08T01:38:19.812Z,13.52
2023-04-08T01:40:46.988Z,12.35
2023-04-08T01:43:14.767Z,11.93
2023-04-08T01:45:42.395Z,20.70
2023-04-08T01:48:09.021Z,13.32
2023-04-08T01:50:35.677Z,18.25
2023-04-08T01:53:02.279Z,15.27
2023-04-08T01:55:28.922Z,15.57
2023-04-08T01:57:56.243Z,19.35
2023-04-08T02:00:25.909Z,13.13
2023-04-08T02:02:53.231Z,14.05
2023-04-08T02:05:20.296Z,12.05
2023-04-08T02:07:49.968Z,11.57
2023-04-08T02:10:16.757Z,15.85
2023-04-08T02:12:44.312Z,12.13
2023-04-08T02:15:12.192Z,12.55
2023-04-08T02:17:54.997Z,13.38
2023-04-08T02:20:32.039Z,15.07
2023-04-08T02:23:10.945Z,13.38
2023-04-08T02:25:38.719Z,13.57
2023-04-08T02:28:06.874Z,12.27
2023-04-08T02:30:33.477Z,14.00
2023-04-08T02:33:00.198Z,10.35
2023-04-08T02:35:26.924Z,11.05
2023-04-08T02:37:53.594Z,15.93
2023-04-08T02:40:23.895Z,14.32
2023-04-08T02:42:50.534Z,10.82
2023-04-08T02:45:17.633Z,11.48
2023-04-08T02:47:44.311Z,10.98
2023-04-08T02:50:11.103Z,9.77
2023-04-08T02:52:37.698Z,9.30
2023-04-08T02:55:06.610Z,11.55
2023-04-08T02:57:33.209Z,10.18
2023-04-08T02:59:59.827Z,10.07
2023-04-08T03:02:26.567Z,10.73
2023-04-08T03:04:53.325Z,9.60
2023-04-08T03:07:19.927Z,9.52
2023-04-08T03:09:46.743Z,13.23
2023-04-08T03:12:13.341Z,11.40
2023-04-08T03:14:39.982Z,10.80
2023-04-08T03:17:06.582Z,12.45
2023-04-08T03:19:33.202Z,14.65
2023-04-08T03:21:59.797Z,13.40
2023-04-08T03:24:26.407Z,11.95
2023-04-08T03:26:53.007Z,10.27
2023-04-08T03:29:19.641Z,12.15
2023-04-08T03:31:46.470Z,11.80
2023-04-08T03:34:13.231Z,12.77
2023-04-08T03:36:39.826Z,10.77
2023-04-08T03:39:06.543Z,11.68
2023-04-08T03:41:33.141Z,11.20
2023-04-08T03:43:59.785Z,16.45
2023-04-08T03:46:26.398Z,14.27
2023-04-08T03:48:53.084Z,12.40
2023-04-08T03:51:19.668Z,14.05
2023-04-08T03:53:46.277Z,12.60
2023-04-08T03:56:12.871Z,13.90
2023-04-08T03:58:39.546Z,14.52
2023-04-08T04:01:06.165Z,10.10
2023-04-08T04:03:32.892Z,14.00
2023-04-08T04:05:59.581Z,15.82
2023-04-08T04:08:26.192Z,17.10
2023-04-08T04:10:52.791Z,17.17
2023-04-08T04:13:19.661Z,16.20
2023-04-08T04:15:46.335Z,15.95
2023-04-08T04:18:12.970Z,14.60
2023-04-08T04:20:42.601Z,13.05
2023-04-08T04:23:09.532Z,12.90
2023-04-08T04:25:36.167Z,14.02
2023-04-08T04:28:03.500Z,16.08
2023-04-08T04:30:30.276Z,14.90
2023-04-08T04:32:57.665Z,15.00
2023-04-08T04:35:24.441Z,14.55
2023-04-08T04:37:51.879Z,14.25
2023-04-08T04:40:18.558Z,17.30
2023-04-08T04:42:45.299Z,13.43
2023-04-08T04:45:12.435Z,14.95
2023-04-08T04:47:39.102Z,12.82
2023-04-08T04:50:06.967Z,16.13
2023-04-08T04:52:33.563Z,15.50
2023-04-08T04:55:00.395Z,12.70
2023-04-08T04:57:27.002Z,13.00
2023-04-08T04:59:53.665Z,13.10
2023-04-08T05:02:20.554Z,13.35
2023-04-08T05:04:47.260Z,15.02
2023-04-08T05:07:13.868Z,14.68
2023-04-08T05:09:40.584Z,13.45
2023-04-08T05:12:07.190Z,15.38
2023-04-08T05:14:33.908Z,15.68
2023-04-08T05:17:00.825Z,13.55
2023-04-08T05:19:27.447Z,14.50
2023-04-08T05:21:54.060Z,18.08
2023-04-08T05:24:20.740Z,18.55
2023-04-08T05:26:48.788Z,18.27
2023-04-08T05:29:15.461Z,16.77
2023-04-08T05:31:42.105Z,19.02
2023-04-08T05:34:08.754Z,16.83
2023-04-08T05:36:35.350Z,18.98
2023-04-08T05:39:03.312Z,17.50
2023-04-08T05:41:30.226Z,17.40
2023-04-08T05:43:56.901Z,22.15
2023-04-08T05:46:23.546Z,19.63
2023-04-08T05:48:50.817Z,19.80
2023-04-08T05:51:17.955Z,22.13
2023-04-08T05:53:47.696Z,18.95
2023-04-08T05:56:14.353Z,20.05
2023-04-08T05:58:41.020Z,21.20
2023-04-08T06:01:07.911Z,22.02
2023-04-08T06:03:34.610Z,28.23
2023-04-08T06:06:01.446Z,19.45
2023-04-08T06:08:28.074Z,19.17
2023-04-08T06:10:54.720Z,18.77
2023-04-08T06:13:21.969Z,26.55
2023-04-08T06:15:51.424Z,21.38
2023-04-08T06:18:18.031Z,22.25
2023-04-08T06:20:44.702Z,24.17
2023-04-08T06:23:11.321Z,28.55
2023-04-08T06:25:37.983Z,22.33
2023-04-08T06:28:04.616Z,21.60
2023-04-08T06:30:31.241Z,23.30
2023-04-08T06:32:58.003Z,25.92
2023-04-08T06:35:24.889Z,24.23
2023-04-08T06:37:51.581Z,26.85
2023-04-08T06:40:19.247Z,25.33
2023-04-08T06:42:46.158Z,27.15
2023-04-08T06:45:12.819Z,33.20
2023-04-08T06:47:39.484Z,30.48
2023-04-08T06:50:06.955Z,35.08
2023-04-08T06:52:33.663Z,30.83
2023-04-08T06:55:00.281Z,30.27
2023-04-08T06:57:27.080Z,29.63
2023-04-08T06:59:53.705Z,35.65
2023-04-08T07:02:20.394Z,31.25
2023-04-08T07:04:47.093Z,36.72
2023-04-08T07:07:13.772Z,33.15
2023-04-08T07:09:43.299Z,34.97
2023-04-08T07:12:10.194Z,35.15
2023-04-08T07:14:36.802Z,37.42
2023-04-08T07:17:03.526Z,38.28
2023-04-08T07:19:30.936Z,30.42
2023-04-08T07:21:57.906Z,31.00
2023-04-08T07:24:24.648Z,29.30
2023-04-08T07:26:51.430Z,29.35
2023-04-08T07:29:18.232Z,33.72
2023-04-08T07:31:44.893Z,29.65
2023-04-08T07:34:11.766Z,30.95
2023-04-08T07:36:38.482Z,32.30
2023-04-08T07:39:05.311Z,27.27
2023-04-08T07:41:31.947Z,29.80
2023-04-08T07:43:58.536Z,33.40
2023-04-08T07:46:25.275Z,30.77
2023-04-08T07:48:52.206Z,26.67
2023-04-08T07:51:20.389Z,29.10
2023-04-08T07:53:47.678Z,25.50
2023-04-08T07:56:14.961Z,28.20
2023-04-08T07:58:41.938Z,27.17
2023-04-08T08:01:19.713Z,26.90
2023-04-08T08:03:47.854Z,30.20
2023-04-08T08:06:15.129Z,25.58
2023-04-08T08:08:41.787Z,28.75
2023-04-08T08:11:08.648Z,22.83
2023-04-08T08:13:35.334Z,27.75
2023-04-08T08:16:02.092Z,27.05
2023-04-08T08:18:28.746Z,18.60
2023-04-08T08:20:55.386Z,15.65
2023-04-08T08:23:22.021Z,16.67
2023-04-08T08:25:48.640Z,16.40
2023-04-08T08:28:15.256Z,17.13
2023-04-08T08:30:41.904Z,16.92
2023-04-08T08:33:08.609Z,18.65
2023-04-08T08:35:35.406Z,19.98
2023-04-08T08:38:02.032Z,20.48
2023-04-08T08:40:28.649Z,19.58
2023-04-08T08:42:55.368Z,18.15
2023-04-08T08:45:22.107Z,19.67
2023-04-08T08:47:51.008Z,17.95
2023-04-08T08:50:18.525Z,20.33
2023-04-08T08:52:51.836Z,19.50
2023-04-08T08:55:39.547Z,19.67
2023-04-08T08:58:11.149Z,19.90
2023-04-08T09:00:45.061Z,18.50
2023-04-08T09:03:30.046Z,20.23
2023-04-08T09:05:57.786Z,23.65
2023-04-08T09:08:26.546Z,21.50
2023-04-08T09:10:54.271Z,21.55
2023-04-08T09:13:23.439Z,23.95
2023-04-08T09:16:10.395Z,23.15
2023-04-08T09:18:41.141Z,19.98
2023-04-08T09:21:07.831Z,22.92
2023-04-08T09:23:38.870Z,24.27
2023-04-08T09:26:12.643Z,24.60
2023-04-08T09:28:39.837Z,22.40
2023-04-08T09:31:22.332Z,22.77
2023-04-08T09:33:50.388Z,28.58
2023-04-08T09:36:17.447Z,24.20
2023-04-08T09:38:44.378Z,24.25
2023-04-08T09:41:14.931Z,24.58
2023-04-08T09:43:49.693Z,21.58
2023-04-08T09:46:18.248Z,25.48
2023-04-08T09:48:57.380Z,23.95
2023-04-08T09:51:24.169Z,28.40
2023-04-08T09:53:59.455Z,23.10
2023-04-08T09:56:27.042Z,22.83
2023-04-08T09:58:59.542Z,24.23
2023-04-08T10:01:30.588Z,23.23
2023-04-08T10:03:57.530Z,25.98
2023-04-08T10:06:28.953Z,25.52
2023-04-08T10:08:56.447Z,26.92
2023-04-08T10:11:23.230Z,25.25
2023-04-08T10:13:50.194Z,25.58
2023-04-08T10:16:17.494Z,26.70
2023-04-08T10:18:44.535Z,28.23
2023-04-08T10:21:31.977Z,30.45
2023-04-08T10:24:06.168Z,27.77
2023-04-08T10:26:43.328Z,25.55
2023-04-08T10:29:33.134Z,28.83
2023-04-08T10:31:59.921Z,29.90
2023-04-08T10:34:27.162Z,28.25
2023-04-08T10:36:55.702Z,27.80
2023-04-08T10:39:22.376Z,27.80
2023-04-08T10:41:50.112Z,30.73
2023-04-08T10:44:21.224Z,30.58
2023-04-08T10:46:48.424Z,26.33
2023-04-08T10:49:15.674Z,32.00
2023-04-08T10:51:44.033Z,33.05
2023-04-08T10:54:15.194Z,30.55
2023-04-08T10:56:49.413Z,32.97
2023-04-08T10:59:17.102Z,36.75
2023-04-08T11:01:45.180Z,34.33
2023-04-08T11:04:13.561Z,31.25
2023-04-08T11:06:42.190Z,33.33
2023-04-08T11:09:08.939Z,33.50
2023-04-08T11:11:36.032Z,37.88
2023-04-08T11:14:03.193Z,36.85
2023-04-08T11:16:29.878Z,37.65
2023-04-08T11:18:56.875Z,40.00
2023-04-08T11:21:23.963Z,40.92
2023-04-08T11:23:51.968Z,37.40
2023-04-08T11:26:21.914Z,39.38
2023-04-08T11:28:52.070Z,39.08
2023-04-08T11:31:20.648Z,40.20
2023-04-08T11:33:49.745Z,36.97
2023-04-08T11:36:17.961Z,36.30
2023-04-08T11:38:44.672Z,35.20
2023-04-08T11:41:11.997Z,35.38
2023-04-08T11:43:40.995Z,31.63
2023-04-08T11:46:11.450Z,34.33
2023-04-08T11:48:38.606Z,31.85
2023-04-08T11:51:12.583Z,36.83
2023-04-08T11:53:39.217Z,34.03
2023-04-08T11:56:19.033Z,30.92
2023-04-08T11:58:46.455Z,32.28
2023-04-08T12:01:13.438Z,33.50
2023-04-08T12:03:40.300Z,30.23
2023-04-08T12:06:08.756Z,34.70
2023-04-08T12:08:35.465Z,40.92
2023-04-08T12:11:16.689Z,35.75
2023-04-08T12:13:46.351Z,33.65
2023-04-08T12:16:14.303Z,29.45
2023-04-08T12:18:41.046Z,34.95
2023-04-08T12:21:07.708Z,32.58
2023-04-08T12:23:34.342Z,34.13
2023-04-08T12:26:00.947Z,35.33
2023-04-08T12:28:27.592Z,37.58
2023-04-08T12:30:54.515Z,37.00
2023-04-08T12:33:21.301Z,33.00
2023-04-08T12:35:47.959Z,38.33
2023-04-08T12:38:14.631Z,69.18
2023-04-08T12:40:41.234Z,41.42
2023-04-08T12:43:07.856Z,52.67
2023-04-08T12:45:34.447Z,92.45
2023-04-08T12:48:01.429Z,46.45
2023-04-08T12:50:28.260Z,47.45
2023-04-08T12:52:54.875Z,103.65
2023-04-08T12:55:24.831Z,37.17
2023-04-08T12:57:52.308Z,75.07
2023-04-08T13:00:19.475Z,38.25
2023-04-08T13:02:46.669Z,35.50
2023-04-08T13:05:13.423Z,59.05
2023-04-08T13:07:40.474Z,49.63
2023-04-08T13:10:08.434Z,47.30
2023-04-08T13:12:35.065Z,27.90
2023-04-08T13:15:01.720Z,30.13
2023-04-08T13:17:28.587Z,36.78
2023-04-08T13:19:55.521Z,34.03
2023-04-08T13:22:22.142Z,33.78
2023-04-08T13:24:48.794Z,20.25
2023-04-08T13:27:15.786Z,23.27
2023-04-08T13:29:42.426Z,22.98
2023-04-08T13:32:09.140Z,31.52
2023-04-08T13:34:35.766Z,26.00
2023-04-08T13:37:03.147Z,22.90
2023-04-08T13:39:29.770Z,31.92
2023-04-08T13:41:56.888Z,22.25
2023-04-08T13:44:23.638Z,23.50
2023-04-08T13:46:50.762Z,21.85
2023-04-08T13:49:17.460Z,22.42
2023-04-08T13:51:44.066Z,23.00
2023-04-08T13:54:10.766Z,22.70
2023-04-08T13:56:37.417Z,20.77
2023-04-08T13:59:04.079Z,23.05
2023-04-08T14:01:30.762Z,23.77
2023-04-08T14:03:57.453Z,21.48
2023-04-08T14:06:24.117Z,22.38
2023-04-08T14:08:50.997Z,21.98
2023-04-08T14:11:18.029Z,22.55
2023-04-08T14:13:44.666Z,24.02
2023-04-08T14:16:11.304Z,24.70
2023-04-08T14:18:38.451Z,22.25
2023-04-08T14:21:05.736Z,20.75
2023-04-08T14:23:32.393Z,20.75
2023-04-08T14:26:01.323Z,18.27
2023-04-08T14:28:27.974Z,21.75
2023-04-08T14:30:54.956Z,22.35
2023-04-08T14:33:21.653Z,25.58
2023-04-08T14:35:48.251Z,24.38
2023-04-08T14:38:14.908Z,20.35
2023-04-08T14:40:41.811Z,19.35
2023-04-08T14:43:08.429Z,21.50
2023-04-08T14:45:35.033Z,20.17
2023-04-08T14:48:02.034Z,25.45
2023-04-08T14:50:28.799Z,20.52
2023-04-08T14:52:55.673Z,20.60
2023-04-08T14:55:22.657Z,21.42
2023-04-08T14:57:49.389Z,19.55
2023-04-08T15:00:16.344Z,18.75
2023-04-08T15:02:43.021Z,19.42
2023-04-08T15:05:09.796Z,19.98
2023-04-08T15:07:36.713Z,17.05
2023-04-08T15:10:03.368Z,18.70
2023-04-08T15:12:30.058Z,17.63
2023-04-08T15:14:56.693Z,17.63
2023-04-08T15:17:23.387Z,14.70
2023-04-08T15:19:50.054Z,17.58
2023-04-08T15:22:16.652Z,20.83
2023-04-08T15:24:43.273Z,18.95
2023-04-08T15:27:09.885Z,20.10
2023-04-08T15:29:36.702Z,17.45
2023-04-08T15:32:03.393Z,19.75
2023-04-08T15:34:29.998Z,18.15
2023-04-08T15:36:57.174Z,21.58
2023-04-08T15:39:23.855Z,22.67
2023-04-08T15:41:50.466Z,19.83
2023-04-08T15:44:17.423Z,22.77
2023-04-08T15:46:44.094Z,21.02
2023-04-08T15:49:10.714Z,19.83
2023-04-08T15:51:37.365Z,20.50
2023-04-08T15:54:03.990Z,19.27
2023-04-08T15:56:31.096Z,22.70
2023-04-08T15:58:58.451Z,29.10
2023-04-08T16:01:25.105Z,29.45
2023-04-08T16:03:51.900Z,27.52
2023-04-08T16:06:18.587Z,26.90
2023-04-08T16:08:46.881Z,25.63
2023-04-08T16:11:13.656Z,31.27
2023-04-08T16:13:42.325Z,28.70
2023-04-08T16:16:09.032Z,30.70
2023-04-08T16:18:35.747Z,23.63
2023-04-08T16:21:05.594Z,32.58
2023-04-08T16:23:32.255Z,25.13
2023-04-08T16:25:58.874Z,69.38
2023-04-08T16:28:27.521Z,34.90
2023-04-08T16:30:54.273Z,32.78
2023-04-08T16:33:23.989Z,33.45
2023-04-08T16:35:50.657Z,33.13
2023-04-08T16:38:17.384Z,34.88
2023-04-08T16:40:43.999Z,33.88
2023-04-08T16:43:11.448Z,34.65
2023-04-08T16:45:40.288Z,38.67
2023-04-08T16:48:07.101Z,37.85
2023-04-08T16:50:33.709Z,40.22
2023-04-08T16:53:00.573Z,46.28
2023-04-08T16:55:27.218Z,39.17
2023-04-08T16:57:57.788Z,36.10
2023-04-08T17:00:24.614Z,35.70
2023-04-08T17:02:53.146Z,34.45
2023-04-08T17:05:19.940Z,36.25
2023-04-08T17:07:46.534Z,32.85
2023-04-08T17:10:13.640Z,37.95
2023-04-08T17:12:40.565Z,34.33
2023-04-08T17:15:08.138Z,34.88
2023-04-08T17:17:34.791Z,34.05
2023-04-08T17:20:01.919Z,37.28
2023-04-08T17:22:28.522Z,38.97
2023-04-08T17:24:55.245Z,37.72
2023-04-08T17:27:22.113Z,44.30
2023-04-08T17:29:48.782Z,40.50
2023-04-08T17:32:15.612Z,40.33
2023-04-08T17:34:42.527Z,41.58
2023-04-08T17:37:10.235Z,44.47
2023-04-08T17:39:40.600Z,46.75
2023-04-08T17:42:10.513Z,47.55
2023-04-08T17:44:37.565Z,50.00
2023-04-08T17:47:04.748Z,43.78
2023-04-08T17:49:31.584Z,48.97
2023-04-08T17:51:58.246Z,59.50
2023-04-08T17:54:25.019Z,57.58
2023-04-08T17:56:51.687Z,55.40
2023-04-08T17:59:18.336Z,52.40
2023-04-08T18:01:45.044Z,61.50
2023-04-08T18:04:12.494Z,54.83
2023-04-08T18:06:39.498Z,61.95
2023-04-08T18:09:06.219Z,63.75
2023-04-08T18:11:32.829Z,64.53
2023-04-08T18:14:02.949Z,67.45
2023-04-08T18:16:29.641Z,67.43
2023-04-08T18:18:56.290Z,72.38
2023-04-08T18:21:22.929Z,62.70
2023-04-08T18:23:52.683Z,65.97
2023-04-08T18:26:19.632Z,62.67
2023-04-08T18:28:46.276Z,66.65
2023-04-08T18:31:12.982Z,70.70
2023-04-08T18:33:39.827Z,70.85
2023-04-08T18:36:12.327Z,64.32
2023-04-08T18:38:40.796Z,69.10
2023-04-08T18:41:07.678Z,65.13
2023-04-08T18:43:34.368Z,62.45
2023-04-08T18:46:01.063Z,72.60
2023-04-08T18:48:27.714Z,61.38
2023-04-08T18:50:54.344Z,58.92
2023-04-08T18:53:21.884Z,63.72
2023-04-08T18:55:48.522Z,62.53
2023-04-08T18:58:15.136Z,66.93
2023-04-08T19:00:42.012Z,62.70
2023-04-08T19:03:10.288Z,68.93
2023-04-08T19:05:37.828Z,64.97
2023-04-08T19:08:04.920Z,76.57
2023-04-08T19:10:32.176Z,71.40
2023-04-08T19:12:59.184Z,77.78
2023-04-08T19:15:26.447Z,65.00
2023-04-08T19:17:53.114Z,69.13
2023-04-08T19:20:19.931Z,68.90
2023-04-08T19:22:48.259Z,72.22
2023-04-08T19:25:14.993Z,74.72
2023-04-08T19:27:41.589Z,69.15
2023-04-08T19:30:08.530Z,78.63
2023-04-08T19:32:35.429Z,70.20
2023-04-08T19:35:02.149Z,87.18
2023-04-08T19:37:28.770Z,75.22
2023-04-08T19:39:55.403Z,72.10
2023-04-08T19:42:22.360Z,70.15
2023-04-08T19:44:49.212Z,72.05
2023-04-08T19:47:17.500Z,68.57
2023-04-08T19:49:44.105Z,74.85
2023-04-08T19:52:10.871Z,75.18
2023-04-08T19:54:37.762Z,76.00
2023-04-08T19:57:08.038Z,65.30
2023-04-08T19:59:35.271Z,69.18
2023-04-08T20:02:03.730Z,72.45
2023-04-08T20:04:31.001Z,69.68
2023-04-08T20:06:57.838Z,69.40
2023-04-08T20:09:24.453Z,69.72
2023-04-08T20:11:51.051Z,70.30
2023-04-08T20:14:17.708Z,70.80
2023-04-08T20:16:44.668Z,70.07
2023-04-08T20:19:11.294Z,66.45
2023-04-08T20:21:38.646Z,64.57
2023-04-08T20:24:05.890Z,61.50
2023-04-08T20:26:32.482Z,78.53
2023-04-08T20:28:59.405Z,88.00
2023-04-08T20:31:26.679Z,73.72
2023-04-08T20:33:53.442Z,66.50
2023-04-08T20:36:20.653Z,62.40
2023-04-08T20:38:47.252Z,59.63
2023-04-08T20:41:18.903Z,74.30
2023-04-08T20:43:45.766Z,73.10
2023-04-08T20:46:12.363Z,63.75
2023-04-08T20:48:39.316Z,63.97
2023-04-08T20:51:06.042Z,65.03
2023-04-08T20:53:34.394Z,66.45
2023-04-08T20:56:01.741Z,63.13
2023-04-08T20:58:28.418Z,62.97
2023-04-08T21:00:55.085Z,60.35
2023-04-08T21:03:21.984Z,61.42
2023-04-08T21:05:49.365Z,60.85
2023-04-08T21:08:16.018Z,56.50
2023-04-08T21:10:42.625Z,65.53
2023-04-08T21:13:09.231Z,61.92
2023-04-08T21:15:35.841Z,55.90
2023-04-08T21:18:03.033Z,62.00
2023-04-08T21:20:29.819Z,63.38
2023-04-08T21:22:56.552Z,67.28
2023-04-08T21:25:23.198Z,70.47
2023-04-08T21:27:49.857Z,56.03
2023-04-08T21:30:17.843Z,55.53
2023-04-08T21:32:44.491Z,57.20
2023-04-08T21:35:11.257Z,52.83
2023-04-08T21:37:37.886Z,57.78
2023-04-08T21:40:04.868Z,58.58
2023-04-08T21:42:32.813Z,55.13
2023-04-08T21:44:59.817Z,57.00
2023-04-08T21:47:26.440Z,47.63
2023-04-08T21:49:53.133Z,56.38
2023-04-08T21:52:19.802Z,50.40
2023-04-08T21:54:49.754Z,54.72
2023-04-08T21:57:16.373Z,55.05
2023-04-08T21:59:42.982Z,51.75
2023-04-08T22:02:11.441Z,56.67
2023-04-08T22:04:38.392Z,53.30
2023-04-08T22:07:05.000Z,51.88
2023-04-08T22:09:31.609Z,55.70
2023-04-08T22:11:58.204Z,52.85
2023-04-08T22:14:24.805Z,52.78
2023-04-08T22:16:51.448Z,53.63
2023-04-08T22:19:18.043Z,52.83
2023-04-08T22:21:44.682Z,58.10
2023-04-08T22:24:11.281Z,52.90
2023-04-08T22:26:37.894Z,55.45
2023-04-08T22:29:04.526Z,58.58
2023-04-08T22:31:31.527Z,49.85
2023-04-08T22:33:58.114Z,54.50
2023-04-08T22:36:24.752Z,53.13
2023-04-08T22:38:51.539Z,57.53
2023-04-08T22:41:19.258Z,52.83
2023-04-08T22:43:46.286Z,56.30
2023-04-08T22:46:14.286Z,49.72
2023-04-08T22:48:44.624Z,54.42
2023-04-08T22:51:11.322Z,55.13
2023-04-08T22:53:38.056Z,59.63
2023-04-08T22:56:04.849Z,60.30
2023-04-08T22:58:31.461Z,64.88
2023-04-08T23:00:58.413Z,59.30
2023-04-08T23:03:25.087Z,64.13
2023-04-08T23:05:51.773Z,63.75
2023-04-08T23:08:18.428Z,59.35
2023-04-08T23:10:45.212Z,58.30
2023-04-08T23:13:13.891Z,61.88
2023-04-08T23:15:40.766Z,64.65
2023-04-08T23:18:07.458Z,60.50
2023-04-08T23:20:35.486Z,60.88
2023-04-08T23:23:03.337Z,67.45
2023-04-08T23:25:30.167Z,64.50
2023-04-08T23:27:56.772Z,65.40
2023-04-08T23:30:23.380Z,66.00
2023-04-08T23:32:50.061Z,68.53
2023-04-08T23:35:16.717Z,67.57
2023-04-08T23:37:43.316Z,66.25
2023-04-08T23:40:10.179Z,64.88
2023-04-08T23:42:36.776Z,76.05
2023-04-08T23:45:03.838Z,72.13
2023-04-08T23:47:31.128Z,73.38
2023-04-08T23:49:57.834Z,64.97
2023-04-08T23:52:24.468Z,67.57
2023-04-08T23:54:51.110Z,71.13
2023-04-08T23:57:20.171Z,71.07
2023-04-08T23:59:47.389Z,73.28
